sensor_id;sensor_type;location;lat;lon;timestamp;P1;durP1;ratioP1;P2;durP2;ratioP2
15077;SDS011;7638;49.760;8.646;2023-04-16T00:02:19;6.00;;;4.30;;
15077;SDS011;7638;49.760;8.646;2023-04-16T00:04:45;5.83;;;4.40;;
15077;SDS011;7638;49.760;8.646;2023-04-16T00:07:11;7.97;;;4.43;;
15077;SDS011;7638;49.760;8.646;2023-04-16T00:09:37;6.00;;;4.27;;
15077;SDS011;7638;49.760;8.646;2023-04-16T00:12:03;5.00;;;3.90;;
15077;SDS011;7638;49.760;8.646;2023-04-16T00:14:30;6.07;;;4.47;;
15077;SDS011;7638;49.760;8.646;2023-04-16T00:16:56;6.23;;;5.33;;
15077;SDS011;7638;49.760;8.646;2023-04-16T00:19:22;6.40;;;4.87;;
15077;SDS011;7638;49.760;8.646;2023-04-16T00:21:48;7.43;;;5.03;;
15077;SDS011;7638;49.760;8.646;2023-04-16T00:24:14;6.90;;;4.70;;
15077;SDS011;7638;49.760;8.646;2023-04-16T00:26:40;5.47;;;4.40;;
15077;SDS011;7638;49.760;8.646;2023-04-16T00:29:08;5.37;;;4.37;;
15077;SDS011;7638;49.760;8.646;2023-04-16T00:31:35;7.13;;;4.97;;
15077;SDS011;7638;49.760;8.646;2023-04-16T00:34:01;7.00;;;5.27;;
15077;SDS011;7638;49.760;8.646;2023-04-16T00:36:27;6.93;;;4.53;;
15077;SDS011;7638;49.760;8.646;2023-04-16T00:38:53;6.83;;;5.13;;
15077;SDS011;7638;49.760;8.646;2023-04-16T00:41:20;6.60;;;5.07;;
15077;SDS011;7638;49.760;8.646;2023-04-16T00:43:47;7.57;;;5.80;;
15077;SDS011;7638;49.760;8.646;2023-04-16T00:46:13;8.67;;;5.67;;
15077;SDS011;7638;49.760;8.646;2023-04-16T00:48:40;6.23;;;4.53;;
15077;SDS011;7638;49.760;8.646;2023-04-16T00:51:08;7.03;;;5.23;;
15077;SDS011;7638;49.760;8.646;2023-04-16T00:53:34;7.30;;;5.77;;
15077;SDS011;7638;49.760;8.646;2023-04-16T00:56:01;12.13;;;5.80;;
15077;SDS011;7638;49.760;8.646;2023-04-16T00:58:27;8.50;;;5.77;;
15077;SDS011;7638;49.760;8.646;2023-04-16T01:00:53;8.63;;;5.80;;
15077;SDS011;7638;49.760;8.646;2023-04-16T01:03:20;7.33;;;5.60;;
15077;SDS011;7638;49.760;8.646;2023-04-16T01:05:46;8.20;;;5.57;;
15077;SDS011;7638;49.760;8.646;2023-04-16T01:08:16;6.40;;;5.63;;
15077;SDS011;7638;49.760;8.646;2023-04-16T01:10:43;6.57;;;5.03;;
15077;SDS011;7638;49.760;8.646;2023-04-16T01:13:09;6.40;;;4.87;;
15077;SDS011;7638;49.760;8.646;2023-04-16T01:15:35;6.30;;;4.83;;
15077;SDS011;7638;49.760;8.646;2023-04-16T01:18:01;8.67;;;5.13;;
15077;SDS011;7638;49.760;8.646;2023-04-16T01:20:27;9.43;;;5.73;;
15077;SDS011;7638;49.760;8.646;2023-04-16T01:22:54;6.60;;;5.77;;
15077;SDS011;7638;49.760;8.646;2023-04-16T01:25:20;6.63;;;5.00;;
15077;SDS011;7638;49.760;8.646;2023-04-16T01:27:48;9.17;;;5.63;;
15077;SDS011;7638;49.760;8.646;2023-04-16T01:30:14;6.83;;;4.90;;
15077;SDS011;7638;49.760;8.646;2023-04-16T01:32:40;7.13;;;5.53;;
15077;SDS011;7638;49.760;8.646;2023-04-16T01:35:06;7.87;;;5.43;;
15077;SDS011;7638;49.760;8.646;2023-04-16T01:37:32;7.00;;;5.23;;
15077;SDS011;7638;49.760;8.646;2023-04-16T01:39:58;6.13;;;5.17;;
15077;SDS011;7638;49.760;8.646;2023-04-16T01:42:24;7.03;;;5.37;;
15077;SDS011;7638;49.760;8.646;2023-04-16T01:44:50;7.17;;;5.70;;
15077;SDS011;7638;49.760;8.646;2023-04-16T01:47:16;7.83;;;6.27;;
15077;SDS011;7638;49.760;8.646;2023-04-16T01:49:43;7.20;;;4.87;;
15077;SDS011;7638;49.760;8.646;2023-04-16T01:52:09;7.03;;;4.97;;
15077;SDS011;7638;49.760;8.646;2023-04-16T01:54:35;8.70;;;5.73;;
15077;SDS011;7638;49.760;8.646;2023-04-16T01:57:01;7.63;;;4.77;;
15077;SDS011;7638;49.760;8.646;2023-04-16T01:59:27;7.70;;;6.50;;
15077;SDS011;7638;49.760;8.646;2023-04-16T02:01:53;8.43;;;6.10;;
15077;SDS011;7638;49.760;8.646;2023-04-16T02:04:19;7.03;;;5.37;;
15077;SDS011;7638;49.760;8.646;2023-04-16T02:06:45;8.37;;;6.30;;
15077;SDS011;7638;49.760;8.646;2023-04-16T02:09:11;7.03;;;5.60;;
15077;SDS011;7638;49.760;8.646;2023-04-16T02:11:37;9.27;;;5.53;;
15077;SDS011;7638;49.760;8.646;2023-04-16T02:14:03;8.07;;;5.83;;
15077;SDS011;7638;49.760;8.646;2023-04-16T02:16:29;8.57;;;5.53;;
15077;SDS011;7638;49.760;8.646;2023-04-16T02:18:55;9.97;;;6.03;;
15077;SDS011;7638;49.760;8.646;2023-04-16T02:21:21;7.67;;;5.50;;
15077;SDS011;7638;49.760;8.646;2023-04-16T02:23:47;7.07;;;5.80;;
15077;SDS011;7638;49.760;8.646;2023-04-16T02:26:15;9.03;;;6.27;;
15077;SDS011;7638;49.760;8.646;2023-04-16T02:28:44;8.40;;;6.23;;
15077;SDS011;7638;49.760;8.646;2023-04-16T02:31:16;7.40;;;5.93;;
15077;SDS011;7638;49.760;8.646;2023-04-16T02:33:43;8.80;;;6.27;;
15077;SDS011;7638;49.760;8.646;2023-04-16T02:36:09;8.77;;;5.57;;
15077;SDS011;7638;49.760;8.646;2023-04-16T02:38:36;7.30;;;5.70;;
15077;SDS011;7638;49.760;8.646;2023-04-16T02:41:02;8.00;;;5.93;;
15077;SDS011;7638;49.760;8.646;2023-04-16T02:43:28;7.87;;;6.00;;
15077;SDS011;7638;49.760;8.646;2023-04-16T02:45:54;7.37;;;5.87;;
15077;SDS011;7638;49.760;8.646;2023-04-16T02:48:20;9.60;;;6.27;;
15077;SDS011;7638;49.760;8.646;2023-04-16T02:50:46;8.00;;;5.67;;
15077;SDS011;7638;49.760;8.646;2023-04-16T02:53:12;9.90;;;6.57;;
15077;SDS011;7638;49.760;8.646;2023-04-16T02:55:38;8.37;;;6.30;;
15077;SDS011;7638;49.760;8.646;2023-04-16T02:58:04;8.93;;;6.23;;
15077;SDS011;7638;49.760;8.646;2023-04-16T03:00:30;7.57;;;6.10;;
15077;SDS011;7638;49.760;8.646;2023-04-16T03:02:56;8.00;;;5.70;;
15077;SDS011;7638;49.760;8.646;2023-04-16T03:05:23;8.80;;;6.43;;
15077;SDS011;7638;49.760;8.646;2023-04-16T03:07:49;7.33;;;6.00;;
15077;SDS011;7638;49.760;8.646;2023-04-16T03:10:20;9.43;;;6.60;;
15077;SDS011;7638;49.760;8.646;2023-04-16T03:12:47;11.17;;;6.03;;
15077;SDS011;7638;49.760;8.646;2023-04-16T03:15:13;13.20;;;6.33;;
15077;SDS011;7638;49.760;8.646;2023-04-16T03:17:39;8.73;;;6.37;;
15077;SDS011;7638;49.760;8.646;2023-04-16T03:20:05;11.50;;;6.90;;
15077;SDS011;7638;49.760;8.646;2023-04-16T03:22:31;11.13;;;7.37;;
15077;SDS011;7638;49.760;8.646;2023-04-16T03:24:57;9.93;;;6.93;;
15077;SDS011;7638;49.760;8.646;2023-04-16T03:27:23;9.93;;;6.70;;
15077;SDS011;7638;49.760;8.646;2023-04-16T03:29:49;7.33;;;5.87;;
15077;SDS011;7638;49.760;8.646;2023-04-16T03:32:15;10.37;;;6.40;;
15077;SDS011;7638;49.760;8.646;2023-04-16T03:34:41;8.33;;;6.00;;
15077;SDS011;7638;49.760;8.646;2023-04-16T03:37:07;8.50;;;6.20;;
15077;SDS011;7638;49.760;8.646;2023-04-16T03:39:35;9.43;;;5.80;;
15077;SDS011;7638;49.760;8.646;2023-04-16T03:42:02;8.93;;;6.57;;
15077;SDS011;7638;49.760;8.646;2023-04-16T03:44:28;9.13;;;5.80;;
15077;SDS011;7638;49.760;8.646;2023-04-16T03:46:54;9.10;;;6.17;;
15077;SDS011;7638;49.760;8.646;2023-04-16T03:49:20;13.10;;;6.53;;
15077;SDS011;7638;49.760;8.646;2023-04-16T03:51:46;11.70;;;6.80;;
15077;SDS011;7638;49.760;8.646;2023-04-16T03:54:12;9.40;;;6.77;;
15077;SDS011;7638;49.760;8.646;2023-04-16T03:56:41;17.83;;;7.33;;
15077;SDS011;7638;49.760;8.646;2023-04-16T03:59:08;8.13;;;6.50;;
15077;SDS011;7638;49.760;8.646;2023-04-16T04:01:34;9.27;;;6.73;;
15077;SDS011;7638;49.760;8.646;2023-04-16T04:04:00;12.03;;;6.87;;
15077;SDS011;7638;49.760;8.646;2023-04-16T04:06:26;11.37;;;6.60;;
15077;SDS011;7638;49.760;8.646;2023-04-16T04:08:52;11.07;;;7.97;;
15077;SDS011;7638;49.760;8.646;2023-04-16T04:11:18;11.90;;;7.60;;
15077;SDS011;7638;49.760;8.646;2023-04-16T04:13:45;8.87;;;6.53;;
15077;SDS011;7638;49.760;8.646;2023-04-16T04:16:11;9.67;;;6.70;;
15077;SDS011;7638;49.760;8.646;2023-04-16T04:18:37;12.20;;;7.17;;
15077;SDS011;7638;49.760;8.646;2023-04-16T04:21:06;10.97;;;7.23;;
15077;SDS011;7638;49.760;8.646;2023-04-16T04:23:33;7.90;;;5.90;;
15077;SDS011;7638;49.760;8.646;2023-04-16T04:25:59;10.13;;;6.90;;
15077;SDS011;7638;49.760;8.646;2023-04-16T04:28:27;8.97;;;6.87;;
15077;SDS011;7638;49.760;8.646;2023-04-16T04:31:02;11.93;;;7.03;;
15077;SDS011;7638;49.760;8.646;2023-04-16T04:33:28;13.63;;;7.10;;
15077;SDS011;7638;49.760;8.646;2023-04-16T04:35:54;11.97;;;7.87;;
15077;SDS011;7638;49.760;8.646;2023-04-16T04:38:21;10.43;;;6.90;;
15077;SDS011;7638;49.760;8.646;2023-04-16T04:40:49;9.83;;;6.67;;
15077;SDS011;7638;49.760;8.646;2023-04-16T04:43:16;10.83;;;7.07;;
15077;SDS011;7638;49.760;8.646;2023-04-16T04:45:42;10.30;;;7.17;;
15077;SDS011;7638;49.760;8.646;2023-04-16T04:48:08;9.23;;;6.87;;
15077;SDS011;7638;49.760;8.646;2023-04-16T04:50:34;11.23;;;7.23;;
15077;SDS011;7638;49.760;8.646;2023-04-16T04:53:01;11.00;;;6.20;;
15077;SDS011;7638;49.760;8.646;2023-04-16T04:55:28;10.37;;;7.33;;
15077;SDS011;7638;49.760;8.646;2023-04-16T04:57:54;11.83;;;7.43;;
15077;SDS011;7638;49.760;8.646;2023-04-16T05:00:20;12.37;;;7.73;;
15077;SDS011;7638;49.760;8.646;2023-04-16T05:02:49;9.97;;;6.57;;
15077;SDS011;7638;49.760;8.646;2023-04-16T05:05:16;9.80;;;6.97;;
15077;SDS011;7638;49.760;8.646;2023-04-16T05:07:43;11.20;;;7.63;;
15077;SDS011;7638;49.760;8.646;2023-04-16T05:10:09;9.40;;;6.97;;
15077;SDS011;7638;49.760;8.646;2023-04-16T05:12:35;10.93;;;7.67;;
15077;SDS011;7638;49.760;8.646;2023-04-16T05:15:01;11.03;;;7.83;;
15077;SDS011;7638;49.760;8.646;2023-04-16T05:17:27;11.93;;;8.33;;
15077;SDS011;7638;49.760;8.646;2023-04-16T05:19:53;11.67;;;7.80;;
15077;SDS011;7638;49.760;8.646;2023-04-16T05:22:19;8.57;;;6.53;;
15077;SDS011;7638;49.760;8.646;2023-04-16T05:24:45;11.37;;;7.67;;
15077;SDS011;7638;49.760;8.646;2023-04-16T05:27:11;12.20;;;7.80;;
15077;SDS011;7638;49.760;8.646;2023-04-16T05:29:37;9.60;;;6.57;;
15077;SDS011;7638;49.760;8.646;2023-04-16T05:32:06;10.90;;;7.57;;
15077;SDS011;7638;49.760;8.646;2023-04-16T05:34:32;11.50;;;7.60;;
15077;SDS011;7638;49.760;8.646;2023-04-16T05:36:58;12.10;;;7.10;;
15077;SDS011;7638;49.760;8.646;2023-04-16T05:39:25;9.77;;;7.23;;
15077;SDS011;7638;49.760;8.646;2023-04-16T05:41:51;10.87;;;7.67;;
15077;SDS011;7638;49.760;8.646;2023-04-16T05:44:17;12.77;;;6.90;;
15077;SDS011;7638;49.760;8.646;2023-04-16T05:46:43;13.03;;;7.93;;
15077;SDS011;7638;49.760;8.646;2023-04-16T05:49:09;12.13;;;8.40;;
15077;SDS011;7638;49.760;8.646;2023-04-16T05:51:35;8.97;;;6.87;;
15077;SDS011;7638;49.760;8.646;2023-04-16T05:54:01;12.43;;;7.27;;
15077;SDS011;7638;49.760;8.646;2023-04-16T05:56:27;12.03;;;7.40;;
15077;SDS011;7638;49.760;8.646;2023-04-16T05:58:53;12.27;;;7.70;;
15077;SDS011;7638;49.760;8.646;2023-04-16T06:01:20;11.90;;;7.80;;
15077;SDS011;7638;49.760;8.646;2023-04-16T06:03:46;8.50;;;6.40;;
15077;SDS011;7638;49.760;8.646;2023-04-16T06:06:12;10.00;;;7.07;;
15077;SDS011;7638;49.760;8.646;2023-04-16T06:08:38;12.17;;;7.60;;
15077;SDS011;7638;49.760;8.646;2023-04-16T06:11:04;8.53;;;7.00;;
15077;SDS011;7638;49.760;8.646;2023-04-16T06:13:30;10.03;;;7.47;;
15077;SDS011;7638;49.760;8.646;2023-04-16T06:15:56;9.87;;;7.50;;
15077;SDS011;7638;49.760;8.646;2023-04-16T06:18:22;11.13;;;7.97;;
15077;SDS011;7638;49.760;8.646;2023-04-16T06:20:48;9.33;;;7.00;;
15077;SDS011;7638;49.760;8.646;2023-04-16T06:23:14;10.10;;;7.03;;
15077;SDS011;7638;49.760;8.646;2023-04-16T06:25:40;8.90;;;6.73;;
15077;SDS011;7638;49.760;8.646;2023-04-16T06:28:07;11.33;;;6.97;;
15077;SDS011;7638;49.760;8.646;2023-04-16T06:30:32;11.30;;;7.43;;
15077;SDS011;7638;49.760;8.646;2023-04-16T06:32:59;10.10;;;7.73;;
15077;SDS011;7638;49.760;8.646;2023-04-16T06:35:25;8.80;;;7.30;;
15077;SDS011;7638;49.760;8.646;2023-04-16T06:37:51;11.57;;;7.20;;
15077;SDS011;7638;49.760;8.646;2023-04-16T06:40:17;11.47;;;7.73;;
15077;SDS011;7638;49.760;8.646;2023-04-16T06:42:43;8.93;;;6.70;;
15077;SDS011;7638;49.760;8.646;2023-04-16T06:45:09;10.77;;;7.50;;
15077;SDS011;7638;49.760;8.646;2023-04-16T06:47:35;12.03;;;6.87;;
15077;SDS011;7638;49.760;8.646;2023-04-16T06:50:01;13.70;;;7.33;;
15077;SDS011;7638;49.760;8.646;2023-04-16T06:52:27;11.10;;;7.20;;
15077;SDS011;7638;49.760;8.646;2023-04-16T06:54:53;13.33;;;8.20;;
15077;SDS011;7638;49.760;8.646;2023-04-16T06:57:19;10.33;;;7.70;;
15077;SDS011;7638;49.760;8.646;2023-04-16T06:59:45;11.13;;;7.40;;
15077;SDS011;7638;49.760;8.646;2023-04-16T07:02:21;11.40;;;7.50;;
15077;SDS011;7638;49.760;8.646;2023-04-16T07:04:47;11.03;;;7.30;;
15077;SDS011;7638;49.760;8.646;2023-04-16T07:07:13;10.97;;;8.10;;
15077;SDS011;7638;49.760;8.646;2023-04-16T07:09:39;12.47;;;8.23;;
15077;SDS011;7638;49.760;8.646;2023-04-16T07:12:05;11.87;;;8.60;;
15077;SDS011;7638;49.760;8.646;2023-04-16T07:14:32;13.43;;;8.57;;
15077;SDS011;7638;49.760;8.646;2023-04-16T07:16:58;13.60;;;8.10;;
15077;SDS011;7638;49.760;8.646;2023-04-16T07:19:24;11.13;;;7.97;;
15077;SDS011;7638;49.760;8.646;2023-04-16T07:21:54;14.23;;;8.53;;
15077;SDS011;7638;49.760;8.646;2023-04-16T07:24:20;13.13;;;8.17;;
15077;SDS011;7638;49.760;8.646;2023-04-16T07:26:46;13.07;;;9.00;;
15077;SDS011;7638;49.760;8.646;2023-04-16T07:29:12;17.27;;;8.97;;
15077;SDS011;7638;49.760;8.646;2023-04-16T07:31:38;13.13;;;9.03;;
15077;SDS011;7638;49.760;8.646;2023-04-16T07:34:04;13.63;;;8.90;;
15077;SDS011;7638;49.760;8.646;2023-04-16T07:36:30;13.73;;;8.80;;
15077;SDS011;7638;49.760;8.646;2023-04-16T07:38:56;13.13;;;8.50;;
15077;SDS011;7638;49.760;8.646;2023-04-16T07:41:22;14.17;;;8.83;;
15077;SDS011;7638;49.760;8.646;2023-04-16T07:43:48;14.43;;;10.10;;
15077;SDS011;7638;49.760;8.646;2023-04-16T07:46:14;12.80;;;8.27;;
15077;SDS011;7638;49.760;8.646;2023-04-16T07:48:41;17.07;;;9.80;;
15077;SDS011;7638;49.760;8.646;2023-04-16T07:51:07;15.37;;;9.30;;
15077;SDS011;7638;49.760;8.646;2023-04-16T07:53:33;12.10;;;8.47;;
15077;SDS011;7638;49.760;8.646;2023-04-16T07:55:59;14.43;;;10.20;;
15077;SDS011;7638;49.760;8.646;2023-04-16T07:58:25;18.80;;;10.90;;
15077;SDS011;7638;49.760;8.646;2023-04-16T08:00:51;15.70;;;10.03;;
15077;SDS011;7638;49.760;8.646;2023-04-16T08:03:18;14.10;;;10.40;;
15077;SDS011;7638;49.760;8.646;2023-04-16T08:05:44;17.23;;;11.60;;
15077;SDS011;7638;49.760;8.646;2023-04-16T08:08:09;19.23;;;10.47;;
15077;SDS011;7638;49.760;8.646;2023-04-16T08:10:35;18.07;;;11.50;;
15077;SDS011;7638;49.760;8.646;2023-04-16T08:13:01;16.97;;;10.90;;
15077;SDS011;7638;49.760;8.646;2023-04-16T08:15:27;16.30;;;9.70;;
15077;SDS011;7638;49.760;8.646;2023-04-16T08:17:53;16.80;;;11.07;;
15077;SDS011;7638;49.760;8.646;2023-04-16T08:20:19;20.77;;;10.63;;
15077;SDS011;7638;49.760;8.646;2023-04-16T08:22:46;16.70;;;8.97;;
15077;SDS011;7638;49.760;8.646;2023-04-16T08:25:13;15.53;;;10.70;;
15077;SDS011;7638;49.760;8.646;2023-04-16T08:27:39;15.10;;;9.87;;
15077;SDS011;7638;49.760;8.646;2023-04-16T08:30:05;14.97;;;9.50;;
15077;SDS011;7638;49.760;8.646;2023-04-16T08:32:31;13.80;;;9.67;;
15077;SDS011;7638;49.760;8.646;2023-04-16T08:34:57;16.17;;;10.97;;
15077;SDS011;7638;49.760;8.646;2023-04-16T08:37:23;15.30;;;9.90;;
15077;SDS011;7638;49.760;8.646;2023-04-16T08:39:50;13.93;;;8.73;;
15077;SDS011;7638;49.760;8.646;2023-04-16T08:44:56;13.67;;;9.30;;
15077;SDS011;7638;49.760;8.646;2023-04-16T08:47:25;14.10;;;9.07;;
15077;SDS011;7638;49.760;8.646;2023-04-16T08:49:53;13.73;;;9.87;;
15077;SDS011;7638;49.760;8.646;2023-04-16T08:52:20;15.80;;;9.60;;
15077;SDS011;7638;49.760;8.646;2023-04-16T08:54:51;14.63;;;9.57;;
15077;SDS011;7638;49.760;8.646;2023-04-16T08:57:22;13.17;;;8.53;;
15077;SDS011;7638;49.760;8.646;2023-04-16T08:59:48;12.93;;;8.40;;
15077;SDS011;7638;49.760;8.646;2023-04-16T09:02:14;13.40;;;7.23;;
15077;SDS011;7638;49.760;8.646;2023-04-16T09:04:41;15.17;;;8.17;;
15077;SDS011;7638;49.760;8.646;2023-04-16T09:07:07;11.40;;;7.87;;
15077;SDS011;7638;49.760;8.646;2023-04-16T09:09:33;15.07;;;9.10;;
15077;SDS011;7638;49.760;8.646;2023-04-16T09:12:00;12.50;;;8.03;;
15077;SDS011;7638;49.760;8.646;2023-04-16T09:14:26;12.53;;;8.03;;
15077;SDS011;7638;49.760;8.646;2023-04-16T09:16:52;15.63;;;8.33;;
15077;SDS011;7638;49.760;8.646;2023-04-16T09:19:19;10.13;;;6.87;;
15077;SDS011;7638;49.760;8.646;2023-04-16T09:21:46;10.97;;;7.17;;
15077;SDS011;7638;49.760;8.646;2023-04-16T09:24:12;12.73;;;8.23;;
15077;SDS011;7638;49.760;8.646;2023-04-16T09:26:39;10.63;;;7.87;;
15077;SDS011;7638;49.760;8.646;2023-04-16T09:29:07;13.23;;;7.63;;
15077;SDS011;7638;49.760;8.646;2023-04-16T09:31:33;13.03;;;8.10;;
15077;SDS011;7638;49.760;8.646;2023-04-16T09:36:26;13.07;;;8.00;;
15077;SDS011;7638;49.760;8.646;2023-04-16T09:38:52;10.67;;;8.37;;
15077;SDS011;7638;49.760;8.646;2023-04-16T09:41:18;14.27;;;8.07;;
15077;SDS011;7638;49.760;8.646;2023-04-16T09:44:03;9.57;;;7.13;;
15077;SDS011;7638;49.760;8.646;2023-04-16T09:46:30;11.40;;;8.10;;
15077;SDS011;7638;49.760;8.646;2023-04-16T09:48:56;10.87;;;8.33;;
15077;SDS011;7638;49.760;8.646;2023-04-16T09:51:22;12.20;;;7.57;;
15077;SDS011;7638;49.760;8.646;2023-04-16T09:53:52;10.90;;;7.00;;
15077;SDS011;7638;49.760;8.646;2023-04-16T09:56:18;11.20;;;7.47;;
15077;SDS011;7638;49.760;8.646;2023-04-16T09:58:48;11.37;;;7.53;;
15077;SDS011;7638;49.760;8.646;2023-04-16T10:01:16;10.73;;;7.40;;
15077;SDS011;7638;49.760;8.646;2023-04-16T10:03:42;10.43;;;7.53;;
15077;SDS011;7638;49.760;8.646;2023-04-16T10:06:15;10.07;;;7.63;;
15077;SDS011;7638;49.760;8.646;2023-04-16T10:08:49;10.43;;;7.37;;
15077;SDS011;7638;49.760;8.646;2023-04-16T10:11:15;10.13;;;6.47;;
15077;SDS011;7638;49.760;8.646;2023-04-16T10:13:42;12.03;;;7.73;;
15077;SDS011;7638;49.760;8.646;2023-04-16T10:16:08;11.17;;;7.23;;
15077;SDS011;7638;49.760;8.646;2023-04-16T10:18:34;11.53;;;7.30;;
15077;SDS011;7638;49.760;8.646;2023-04-16T10:21:01;11.30;;;8.27;;
15077;SDS011;7638;49.760;8.646;2023-04-16T10:23:27;11.70;;;8.30;;
15077;SDS011;7638;49.760;8.646;2023-04-16T10:25:54;11.83;;;7.93;;
15077;SDS011;7638;49.760;8.646;2023-04-16T10:28:20;11.37;;;8.17;;
15077;SDS011;7638;49.760;8.646;2023-04-16T10:30:49;11.97;;;8.30;;
15077;SDS011;7638;49.760;8.646;2023-04-16T10:33:22;10.17;;;7.70;;
15077;SDS011;7638;49.760;8.646;2023-04-16T10:35:49;13.23;;;8.23;;
15077;SDS011;7638;49.760;8.646;2023-04-16T10:40:48;10.03;;;8.07;;
15077;SDS011;7638;49.760;8.646;2023-04-16T10:43:17;12.00;;;8.60;;
15077;SDS011;7638;49.760;8.646;2023-04-16T10:45:43;11.13;;;7.87;;
15077;SDS011;7638;49.760;8.646;2023-04-16T10:48:10;12.30;;;8.37;;
15077;SDS011;7638;49.760;8.646;2023-04-16T10:50:38;11.13;;;7.97;;
15077;SDS011;7638;49.760;8.646;2023-04-16T10:53:26;12.50;;;8.33;;
15077;SDS011;7638;49.760;8.646;2023-04-16T10:56:08;12.37;;;8.43;;
15077;SDS011;7638;49.760;8.646;2023-04-16T10:58:35;20.27;;;12.53;;
15077;SDS011;7638;49.760;8.646;2023-04-16T11:01:16;18.50;;;12.53;;
15077;SDS011;7638;49.760;8.646;2023-04-16T11:03:43;14.30;;;10.47;;
15077;SDS011;7638;49.760;8.646;2023-04-16T11:06:13;12.23;;;8.70;;
15077;SDS011;7638;49.760;8.646;2023-04-16T11:08:40;13.10;;;9.57;;
15077;SDS011;7638;49.760;8.646;2023-04-16T11:11:08;14.70;;;9.13;;
15077;SDS011;7638;49.760;8.646;2023-04-16T11:13:35;15.70;;;9.23;;
15077;SDS011;7638;49.760;8.646;2023-04-16T11:16:01;12.07;;;8.80;;
15077;SDS011;7638;49.760;8.646;2023-04-16T11:18:27;13.60;;;9.50;;
15077;SDS011;7638;49.760;8.646;2023-04-16T11:20:53;13.07;;;8.87;;
15077;SDS011;7638;49.760;8.646;2023-04-16T11:23:20;14.47;;;9.40;;
15077;SDS011;7638;49.760;8.646;2023-04-16T11:25:46;12.13;;;8.43;;
15077;SDS011;7638;49.760;8.646;2023-04-16T11:28:12;13.60;;;9.73;;
15077;SDS011;7638;49.760;8.646;2023-04-16T11:30:47;14.50;;;9.83;;
15077;SDS011;7638;49.760;8.646;2023-04-16T11:33:13;14.17;;;10.57;;
15077;SDS011;7638;49.760;8.646;2023-04-16T11:35:40;15.73;;;10.67;;
15077;SDS011;7638;49.760;8.646;2023-04-16T11:38:07;17.40;;;11.20;;
15077;SDS011;7638;49.760;8.646;2023-04-16T11:40:33;21.30;;;11.17;;
15077;SDS011;7638;49.760;8.646;2023-04-16T11:43:15;17.13;;;10.80;;
15077;SDS011;7638;49.760;8.646;2023-04-16T11:46:00;17.20;;;11.30;;
15077;SDS011;7638;49.760;8.646;2023-04-16T11:48:44;14.73;;;10.57;;
15077;SDS011;7638;49.760;8.646;2023-04-16T11:51:11;15.53;;;9.77;;
15077;SDS011;7638;49.760;8.646;2023-04-16T11:53:44;17.20;;;10.77;;
15077;SDS011;7638;49.760;8.646;2023-04-16T11:56:10;13.50;;;9.33;;
15077;SDS011;7638;49.760;8.646;2023-04-16T11:58:36;14.23;;;9.60;;
15077;SDS011;7638;49.760;8.646;2023-04-16T12:01:05;14.13;;;10.27;;
15077;SDS011;7638;49.760;8.646;2023-04-16T12:03:37;15.80;;;10.90;;
15077;SDS011;7638;49.760;8.646;2023-04-16T12:06:06;18.00;;;10.93;;
15077;SDS011;7638;49.760;8.646;2023-04-16T12:08:33;16.47;;;11.20;;
15077;SDS011;7638;49.760;8.646;2023-04-16T12:10:59;14.90;;;10.67;;
15077;SDS011;7638;49.760;8.646;2023-04-16T12:13:25;13.93;;;9.77;;
15077;SDS011;7638;49.760;8.646;2023-04-16T12:15:52;14.07;;;11.33;;
15077;SDS011;7638;49.760;8.646;2023-04-16T12:18:18;19.33;;;11.50;;
15077;SDS011;7638;49.760;8.646;2023-04-16T12:20:45;13.27;;;10.30;;
15077;SDS011;7638;49.760;8.646;2023-04-16T12:23:21;13.23;;;9.83;;
15077;SDS011;7638;49.760;8.646;2023-04-16T12:25:48;14.83;;;9.50;;
15077;SDS011;7638;49.760;8.646;2023-04-16T12:28:14;13.73;;;10.10;;
15077;SDS011;7638;49.760;8.646;2023-04-16T12:30:59;15.00;;;10.03;;
15077;SDS011;7638;49.760;8.646;2023-04-16T12:33:25;12.97;;;8.97;;
15077;SDS011;7638;49.760;8.646;2023-04-16T12:35:51;11.60;;;9.03;;
15077;SDS011;7638;49.760;8.646;2023-04-16T12:38:17;12.87;;;8.97;;
15077;SDS011;7638;49.760;8.646;2023-04-16T12:40:43;13.53;;;9.77;;
15077;SDS011;7638;49.760;8.646;2023-04-16T12:43:09;12.73;;;9.27;;
15077;SDS011;7638;49.760;8.646;2023-04-16T12:45:35;17.37;;;9.73;;
15077;SDS011;7638;49.760;8.646;2023-04-16T12:48:01;16.00;;;10.23;;
15077;SDS011;7638;49.760;8.646;2023-04-16T12:50:27;14.03;;;10.00;;
15077;SDS011;7638;49.760;8.646;2023-04-16T12:52:54;13.13;;;9.73;;
15077;SDS011;7638;49.760;8.646;2023-04-16T12:55:20;14.83;;;9.47;;
15077;SDS011;7638;49.760;8.646;2023-04-16T12:57:46;15.73;;;10.37;;
15077;SDS011;7638;49.760;8.646;2023-04-16T13:00:16;13.87;;;9.13;;
15077;SDS011;7638;49.760;8.646;2023-04-16T13:02:43;15.40;;;10.50;;
15077;SDS011;7638;49.760;8.646;2023-04-16T13:05:09;14.63;;;9.77;;
15077;SDS011;7638;49.760;8.646;2023-04-16T13:07:35;14.17;;;9.80;;
15077;SDS011;7638;49.760;8.646;2023-04-16T13:10:01;14.53;;;10.20;;
15077;SDS011;7638;49.760;8.646;2023-04-16T13:12:27;13.03;;;9.47;;
15077;SDS011;7638;49.760;8.646;2023-04-16T13:14:54;15.00;;;10.33;;
15077;SDS011;7638;49.760;8.646;2023-04-16T13:17:20;13.73;;;9.63;;
15077;SDS011;7638;49.760;8.646;2023-04-16T13:19:46;15.43;;;11.13;;
15077;SDS011;7638;49.760;8.646;2023-04-16T13:22:12;15.30;;;9.70;;
15077;SDS011;7638;49.760;8.646;2023-04-16T13:24:38;14.80;;;10.70;;
15077;SDS011;7638;49.760;8.646;2023-04-16T13:27:04;13.53;;;10.13;;
15077;SDS011;7638;49.760;8.646;2023-04-16T13:29:32;15.77;;;10.10;;
15077;SDS011;7638;49.760;8.646;2023-04-16T13:32:05;16.03;;;10.83;;
15077;SDS011;7638;49.760;8.646;2023-04-16T13:34:31;16.03;;;11.47;;
15077;SDS011;7638;49.760;8.646;2023-04-16T13:36:57;15.03;;;11.83;;
15077;SDS011;7638;49.760;8.646;2023-04-16T13:39:24;18.30;;;11.87;;
15077;SDS011;7638;49.760;8.646;2023-04-16T13:41:50;16.30;;;11.77;;
15077;SDS011;7638;49.760;8.646;2023-04-16T13:44:16;16.40;;;11.37;;
15077;SDS011;7638;49.760;8.646;2023-04-16T13:46:41;18.60;;;12.57;;
15077;SDS011;7638;49.760;8.646;2023-04-16T13:49:11;21.50;;;13.23;;
15077;SDS011;7638;49.760;8.646;2023-04-16T13:51:37;15.87;;;11.87;;
15077;SDS011;7638;49.760;8.646;2023-04-16T13:54:03;19.90;;;13.00;;
15077;SDS011;7638;49.760;8.646;2023-04-16T13:56:29;17.20;;;10.80;;
15077;SDS011;7638;49.760;8.646;2023-04-16T13:58:55;16.97;;;11.47;;
15077;SDS011;7638;49.760;8.646;2023-04-16T14:01:21;18.50;;;12.73;;
15077;SDS011;7638;49.760;8.646;2023-04-16T14:03:47;19.60;;;12.63;;
15077;SDS011;7638;49.760;8.646;2023-04-16T14:06:13;17.37;;;12.77;;
15077;SDS011;7638;49.760;8.646;2023-04-16T14:08:42;23.93;;;12.77;;
15077;SDS011;7638;49.760;8.646;2023-04-16T14:11:07;17.30;;;12.67;;
15077;SDS011;7638;49.760;8.646;2023-04-16T14:13:33;16.23;;;11.27;;
15077;SDS011;7638;49.760;8.646;2023-04-16T14:16:00;18.60;;;12.00;;
15077;SDS011;7638;49.760;8.646;2023-04-16T14:18:26;15.83;;;11.23;;
15077;SDS011;7638;49.760;8.646;2023-04-16T14:20:52;14.03;;;10.83;;
15077;SDS011;7638;49.760;8.646;2023-04-16T14:23:18;18.33;;;12.33;;
15077;SDS011;7638;49.760;8.646;2023-04-16T14:25:44;14.80;;;11.57;;
15077;SDS011;7638;49.760;8.646;2023-04-16T14:28:10;17.97;;;11.80;;
15077;SDS011;7638;49.760;8.646;2023-04-16T14:30:36;14.40;;;10.87;;
15077;SDS011;7638;49.760;8.646;2023-04-16T14:33:04;13.47;;;11.03;;
15077;SDS011;7638;49.760;8.646;2023-04-16T14:35:30;18.83;;;11.60;;
15077;SDS011;7638;49.760;8.646;2023-04-16T14:37:58;15.40;;;10.97;;
15077;SDS011;7638;49.760;8.646;2023-04-16T14:40:24;18.53;;;11.27;;
15077;SDS011;7638;49.760;8.646;2023-04-16T14:42:50;19.60;;;11.37;;
15077;SDS011;7638;49.760;8.646;2023-04-16T14:45:16;18.40;;;10.93;;
15077;SDS011;7638;49.760;8.646;2023-04-16T14:47:42;16.77;;;11.03;;
15077;SDS011;7638;49.760;8.646;2023-04-16T14:50:11;17.93;;;10.80;;
15077;SDS011;7638;49.760;8.646;2023-04-16T14:52:38;15.40;;;12.53;;
15077;SDS011;7638;49.760;8.646;2023-04-16T14:55:04;13.43;;;10.90;;